Time;durP1;ratioP1;P1;durP2;ratioP2;P2;SDS_P1;SDS_P2;PMS_P1;PMS_P2;Temp;Humidity;BMP_temperature;BMP_pressure;BME280_temperature;BME280_humidity;BME280_pressure;Samples;Min_cycle;Max_cycle;Signal;HPM_P1;HPM_P2
2023/04/25 00:02:24;;;;;;;3.40;3.03;;;11.00;99.90;10.20;99007;;;;582801;246;24136;-74
2023/04/25 00:04:51;;;;;;;3.23;2.97;;;10.90;99.90;10.20;99012;;;;583194;244;24061;-77
2023/04/25 00:07:19;;;;;;;4.63;3.10;;;10.90;99.90;10.20;99008;;;;584082;245;24066;-75
2023/04/25 00:09:47;;;;;;;2.97;2.70;;;10.90;99.90;10.20;99009;;;;583872;240;24078;-74
2023/04/25 00:12:16;;;;;;;3.37;2.93;;;10.90;99.90;10.20;99010;;;;583852;245;24098;-74
2023/04/25 00:14:45;;;;;;;2.80;2.60;;;10.90;99.90;10.20;99010;;;;583633;246;24133;-73
2023/04/25 00:17:11;;;;;;;3.20;2.97;;;10.90;99.90;10.20;99010;;;;583568;240;24059;-73
2023/04/25 00:19:39;;;;;;;2.87;2.50;;;10.90;99.90;10.20;99003;;;;583611;245;24125;-75
2023/04/25 00:22:07;;;;;;;3.07;2.87;;;11.00;99.90;10.30;98998;;;;583693;245;24137;-75
2023/04/25 00:24:35;;;;;;;3.00;2.80;;;10.90;99.90;10.30;99000;;;;583580;245;24099;-76
2023/04/25 00:27:03;;;;;;;2.87;2.67;;;10.90;99.90;10.20;98999;;;;583833;245;24090;-74
2023/04/25 00:29:31;;;;;;;4.63;2.90;;;11.00;99.90;10.20;98993;;;;584319;245;24091;-78
2023/04/25 00:32:00;;;;;;;4.37;3.60;;;11.00;99.90;10.20;98997;;;;584537;245;24115;-72
2023/04/25 00:34:27;;;;;;;3.97;3.60;;;10.90;99.90;10.20;98990;;;;584061;245;24088;-74
2023/04/25 00:36:55;;;;;;;4.70;3.47;;;10.90;99.90;10.20;98992;;;;583871;245;24126;-73
2023/04/25 00:39:23;;;;;;;6.87;3.53;;;11.00;99.90;10.20;99005;;;;583521;245;24093;-75
2023/04/25 00:41:54;;;;;;;3.53;3.27;;;10.90;99.90;10.20;99001;;;;583611;245;24084;-74
2023/04/25 00:44:19;;;;;;;3.90;3.60;;;10.90;99.90;10.20;98999;;;;583300;246;24115;-76
2023/04/25 00:46:50;;;;;;;5.43;3.90;;;10.90;99.90;10.20;99015;;;;583326;240;24107;-76
2023/04/25 00:49:18;;;;;;;3.13;2.93;;;10.90;99.90;10.20;99007;;;;583269;240;24067;-78
2023/04/25 00:51:46;;;;;;;3.60;3.30;;;10.90;99.90;10.30;99014;;;;583341;246;24071;-75
2023/04/25 00:54:17;;;;;;;5.20;3.23;;;10.90;99.90;10.30;99008;;;;583385;246;24094;-73
2023/04/25 00:56:46;;;;;;;3.83;3.53;;;11.00;99.90;10.30;99007;;;;583273;240;24055;-77
2023/04/25 00:59:10;;;;;;;3.70;3.43;;;11.00;99.90;10.30;99017;;;;582926;246;24072;-80
2023/04/25 01:01:41;;;;;;;4.10;3.43;;;11.00;99.90;10.30;99012;;;;583363;240;24070;-75
2023/04/25 01:04:06;;;;;;;7.10;3.63;;;11.00;99.90;10.30;99010;;;;583285;240;24092;-73
2023/04/25 01:06:34;;;;;;;6.47;3.73;;;11.00;99.90;10.30;99010;;;;583277;246;24094;-74
2023/04/25 01:09:05;;;;;;;4.00;3.50;;;11.00;99.90;10.30;99008;;;;583129;246;24130;-78
2023/04/25 01:11:33;;;;;;;4.73;4.33;;;11.00;99.90;10.30;99010;;;;583219;246;24085;-76
2023/04/25 01:14:01;;;;;;;4.83;4.40;;;11.00;99.90;10.30;99008;;;;583950;246;24096;-81
2023/04/25 01:16:29;;;;;;;6.13;4.33;;;11.00;99.90;10.30;99012;;;;584197;244;25168;-77
2023/04/25 01:18:54;;;;;;;5.87;4.40;;;11.00;99.90;10.30;99002;;;;585297;239;25167;-78
2023/04/25 01:21:26;;;;;;;4.93;4.43;;;11.00;99.90;10.30;99005;;;;585210;240;24067;-75
2023/04/25 01:23:50;;;;;;;5.30;4.63;;;11.00;99.90;10.30;99005;;;;584848;246;24080;-73
2023/04/25 01:26:21;;;;;;;5.70;4.43;;;11.00;99.90;10.30;99008;;;;584879;245;24071;-74
2023/04/25 01:28:45;;;;;;;6.10;4.30;;;11.00;99.90;10.30;99006;;;;583915;246;24121;-76
2023/04/25 01:31:13;;;;;;;6.13;4.53;;;11.00;99.90;10.30;99009;;;;584128;245;24066;-79
2023/04/25 01:33:41;;;;;;;5.13;4.60;;;11.00;99.90;10.30;99013;;;;583904;246;24101;-81
2023/04/25 01:36:09;;;;;;;5.60;4.33;;;10.90;99.90;10.30;99011;;;;583529;245;24070;-80
2023/04/25 01:38:41;;;;;;;4.60;4.20;;;10.90;99.90;10.20;99013;;;;583691;245;24117;-82
2023/04/25 01:41:09;;;;;;;7.63;3.57;;;10.90;99.90;10.20;99000;;;;582923;246;25147;-77
2023/04/25 01:43:37;;;;;;;4.83;4.37;;;10.90;99.90;10.20;99007;;;;583224;246;24112;-80
2023/04/25 01:46:00;;;;;;;4.07;3.70;;;10.90;99.90;10.20;99010;;;;583692;246;24048;-82
2023/04/25 01:48:29;;;;;;;5.43;4.30;;;10.90;99.90;10.20;99014;;;;583692;245;24067;-81
2023/04/25 01:50:57;;;;;;;5.23;4.27;;;10.90;99.90;10.20;99010;;;;583783;240;24085;-75
2023/04/25 01:53:28;;;;;;;5.80;4.03;;;10.90;99.90;10.20;99021;;;;583667;245;24106;-73
2023/04/25 01:55:53;;;;;;;5.07;3.60;;;10.90;99.90;10.20;99020;;;;583616;246;24095;-81
2023/04/25 01:58:21;;;;;;;4.17;3.87;;;10.90;99.90;10.20;99020;;;;583554;246;24071;-79
2023/04/25 02:00:49;;;;;;;4.67;4.07;;;10.90;99.90;10.20;99021;;;;583135;246;24084;-78
2023/04/25 02:03:17;;;;;;;5.10;4.20;;;10.90;99.90;10.20;99017;;;;583409;246;24093;-82
2023/04/25 02:05:45;;;;;;;8.67;4.30;;;10.90;99.90;10.20;99019;;;;583258;246;24123;-82
2023/04/25 02:08:13;;;;;;;4.33;3.93;;;10.90;99.90;10.20;99026;;;;583084;246;24133;-79
2023/04/25 02:10:41;;;;;;;4.33;3.93;;;10.90;99.90;10.20;99025;;;;583105;240;24079;-77
2023/04/25 02:13:09;;;;;;;4.93;4.53;;;10.90;99.90;10.20;99024;;;;582979;246;24145;-75
2023/04/25 02:15:37;;;;;;;4.20;3.80;;;10.90;99.90;10.20;99022;;;;583539;246;24072;-75
2023/04/25 02:18:06;;;;;;;5.07;3.97;;;10.90;99.90;10.20;99032;;;;583411;246;24123;-74
2023/04/25 02:20:37;;;;;;;4.53;4.07;;;10.90;99.90;10.20;99026;;;;583436;246;24177;-80
2023/04/25 02:23:01;;;;;;;3.90;3.60;;;10.90;99.90;10.10;99026;;;;583022;246;24095;-79
2023/04/25 02:25:29;;;;;;;4.63;4.23;;;10.80;99.90;10.10;99029;;;;583151;246;24081;-75
2023/04/25 02:27:57;;;;;;;4.53;4.10;;;10.80;99.90;10.10;99032;;;;583485;240;24074;-75
2023/04/25 02:30:25;;;;;;;5.17;4.50;;;10.80;99.90;10.10;99024;;;;584045;245;24070;-73
2023/04/25 02:32:53;;;;;;;6.23;4.43;;;10.80;99.90;10.10;99026;;;;583742;245;24091;-75
2023/04/25 02:35:21;;;;;;;4.47;4.07;;;10.80;99.90;10.10;99022;;;;583620;240;24111;-74
2023/04/25 02:37:49;;;;;;;4.73;4.33;;;10.80;99.90;10.10;99025;;;;583590;245;24070;-74
2023/04/25 02:40:17;;;;;;;6.43;4.40;;;10.80;99.90;10.10;99031;;;;583366;245;24089;-76
2023/04/25 02:42:45;;;;;;;5.17;4.53;;;10.80;99.90;10.10;99025;;;;583067;245;24127;-75
2023/04/25 02:45:13;;;;;;;5.60;4.63;;;10.80;99.90;10.10;99023;;;;583472;246;24104;-75
2023/04/25 02:47:41;;;;;;;6.50;4.73;;;10.80;99.90;10.10;99025;;;;583332;245;24105;-75
2023/04/25 02:50:09;;;;;;;5.97;5.00;;;10.80;99.90;10.10;99020;;;;583337;245;24071;-76
2023/04/25 02:52:37;;;;;;;5.40;4.13;;;10.80;99.90;10.10;99018;;;;583123;246;25130;-77
2023/04/25 02:55:05;;;;;;;5.23;4.37;;;10.80;99.90;10.00;99021;;;;583267;245;24078;-76
2023/04/25 02:57:33;;;;;;;4.83;4.40;;;10.80;99.90;10.00;99026;;;;583162;241;24082;-74
2023/04/25 03:00:01;;;;;;;5.17;4.67;;;10.80;99.90;10.00;99027;;;;582766;245;24151;-76
2023/04/25 03:02:29;;;;;;;5.13;4.63;;;10.70;99.90;10.00;99021;;;;582935;240;24091;-75
2023/04/25 03:04:58;;;;;;;5.03;4.63;;;10.80;99.90;10.00;99023;;;;582633;240;24086;-74
2023/04/25 03:07:25;;;;;;;6.23;4.97;;;10.70;99.90;10.00;99019;;;;582721;240;24079;-77
2023/04/25 03:09:53;;;;;;;5.10;4.67;;;10.80;99.90;10.00;99021;;;;582599;246;24094;-76
2023/04/25 03:12:21;;;;;;;4.90;4.50;;;10.80;99.90;10.00;99025;;;;582493;246;24103;-74
2023/04/25 03:14:50;;;;;;;7.20;4.37;;;10.80;99.90;10.10;99027;;;;583046;246;24080;-74
2023/04/25 03:17:17;;;;;;;5.23;4.80;;;10.80;99.90;10.10;99030;;;;582988;246;24102;-75
2023/04/25 03:19:45;;;;;;;5.20;4.70;;;10.80;99.90;10.10;99026;;;;583044;246;24106;-77
2023/04/25 03:22:13;;;;;;;5.10;4.70;;;10.80;99.90;10.10;99025;;;;583143;246;24103;-80
2023/04/25 03:24:41;;;;;;;6.50;5.40;;;10.80;99.90;10.10;99027;;;;583246;246;24118;-75
2023/04/25 03:27:09;;;;;;;8.00;5.27;;;10.80;99.90;10.10;99018;;;;582946;241;24153;-82
2023/04/25 03:29:38;;;;;;;7.30;5.40;;;10.80;99.90;10.10;99015;;;;582833;246;24183;-73
2023/04/25 03:32:05;;;;;;;6.53;5.00;;;10.80;99.90;10.00;99015;;;;582984;240;24113;-79
2023/04/25 03:34:33;;;;;;;6.27;4.60;;;10.80;99.90;10.10;99018;;;;582838;240;24122;-82
2023/04/25 03:37:01;;;;;;;5.97;5.23;;;10.80;99.90;10.10;99023;;;;583011;240;24090;-81
2023/04/25 03:39:29;;;;;;;5.67;5.07;;;10.80;99.90;10.00;99017;;;;583211;244;24135;-83
2023/04/25 03:41:57;;;;;;;5.43;4.80;;;10.80;99.90;10.00;99022;;;;584288;245;24110;-78
2023/04/25 03:44:26;;;;;;;7.27;5.63;;;10.80;99.90;10.00;99022;;;;584403;240;24083;-76
2023/04/25 03:46:54;;;;;;;7.40;5.37;;;10.80;99.90;10.00;99037;;;;584233;245;24074;-81
2023/04/25 03:49:21;;;;;;;8.43;5.93;;;10.80;99.90;9.90;99029;;;;584121;245;24083;-79
2023/04/25 03:51:49;;;;;;;5.90;5.03;;;10.70;99.90;9.80;99039;;;;584179;245;24126;-74
2023/04/25 03:54:17;;;;;;;9.93;6.37;;;10.60;99.90;9.60;99043;;;;584141;240;24077;-76
2023/04/25 03:56:48;;;;;;;6.07;5.40;;;10.50;99.90;9.40;99050;;;;584181;245;24101;-81
2023/04/25 03:59:13;;;;;;;6.50;3.67;;;10.30;99.90;9.30;99038;;;;583215;246;24094;-77
2023/04/25 04:01:41;;;;;;;8.30;5.53;;;10.20;99.90;9.20;99050;;;;583507;245;24130;-83
2023/04/25 04:04:09;;;;;;;5.33;4.83;;;10.10;99.90;9.00;99044;;;;583971;245;24092;-81
2023/04/25 04:06:36;;;;;;;4.83;4.17;;;9.90;99.90;9.00;99053;;;;584022;245;24124;-80
2023/04/25 04:09:06;;;;;;;5.47;4.43;;;9.80;99.90;8.90;99054;;;;584070;245;24114;-78
2023/04/25 04:11:33;;;;;;;7.20;5.20;;;9.70;99.90;8.80;99049;;;;584500;246;24145;-77
2023/04/25 04:14:01;;;;;;;6.03;5.20;;;9.70;99.90;8.80;99050;;;;584841;240;24082;-78
2023/04/25 04:16:29;;;;;;;5.50;4.93;;;9.60;99.90;8.80;99051;;;;584198;245;24035;-74
2023/04/25 04:18:57;;;;;;;5.90;5.03;;;9.60;99.90;8.70;99050;;;;584295;246;24092;-78
2023/04/25 04:21:26;;;;;;;4.37;3.97;;;9.60;99.90;8.70;99047;;;;583958;246;24089;-82
2023/04/25 04:23:54;;;;;;;5.30;4.70;;;9.50;99.90;8.70;99050;;;;584225;240;24062;-80
2023/04/25 04:26:23;;;;;;;5.43;4.40;;;9.50;99.90;8.70;99055;;;;584085;240;24058;-83
2023/04/25 04:28:48;;;;;;;6.07;4.67;;;9.50;99.90;8.70;99050;;;;584010;246;24116;-82
2023/04/25 04:31:18;;;;;;;6.60;5.23;;;9.50;99.90;8.70;99053;;;;583405;246;24082;-81
2023/04/25 04:33:44;;;;;;;5.07;4.40;;;9.50;99.90;8.70;99057;;;;582975;246;24083;-75
2023/04/25 04:36:12;;;;;;;7.63;5.27;;;9.40;99.90;8.60;99066;;;;583812;240;24089;-79
2023/04/25 04:38:40;;;;;;;7.87;5.10;;;9.50;99.90;8.70;99057;;;;583561;246;24125;-82
2023/04/25 04:41:11;;;;;;;5.80;5.07;;;9.40;99.90;8.70;99056;;;;583091;246;26283;-79
2023/04/25 04:43:37;;;;;;;6.33;5.13;;;9.50;99.90;8.70;99065;;;;583200;246;24089;-80
2023/04/25 04:46:04;;;;;;;6.03;4.97;;;9.50;99.90;8.70;99057;;;;583686;246;24076;-77
2023/04/25 04:48:35;;;;;;;5.33;4.77;;;9.50;99.90;8.80;99059;;;;573701;246;24060;-76
2023/04/25 04:51:03;;;;;;;10.33;5.33;;;9.50;99.90;8.70;99055;;;;574109;244;24076;-81
2023/04/25 04:53:31;;;;;;;5.20;4.70;;;9.50;99.90;8.70;99053;;;;575169;246;24056;-78
2023/04/25 04:55:59;;;;;;;6.03;4.87;;;9.50;99.90;8.70;99057;;;;575214;246;24096;-79
2023/04/25 04:58:29;;;;;;;5.70;5.10;;;9.50;99.90;8.80;99057;;;;574676;246;24087;-79
2023/04/25 05:00:55;;;;;;;7.43;4.93;;;9.50;99.90;8.80;99065;;;;574904;246;24081;-80
2023/04/25 05:03:22;;;;;;;6.47;5.63;;;9.50;99.90;8.80;99063;;;;574894;246;24059;-82
2023/04/25 05:05:52;;;;;;;6.80;5.50;;;9.60;99.90;8.90;99071;;;;570180;245;24065;-73
2023/04/25 05:08:20;;;;;;;6.60;5.40;;;9.60;99.90;8.90;99068;;;;574772;246;24125;-79
2023/04/25 05:10:49;;;;;;;5.07;4.33;;;9.70;99.90;8.90;99061;;;;574576;246;24147;-80
2023/04/25 05:13:17;;;;;;;5.23;4.63;;;9.70;99.90;9.00;99063;;;;574158;246;24113;-78
2023/04/25 05:15:45;;;;;;;7.23;4.33;;;9.70;99.90;9.00;99062;;;;574143;246;24056;-76
2023/04/25 05:18:12;;;;;;;5.70;4.87;;;9.80;99.90;9.10;99065;;;;574454;246;24062;-79
2023/04/25 05:20:41;;;;;;;5.27;4.53;;;9.80;99.90;9.20;99074;;;;574597;246;24112;-78
2023/04/25 05:23:08;;;;;;;5.70;5.10;;;9.90;99.90;9.20;99060;;;;574309;246;24087;-80
2023/04/25 05:25:36;;;;;;;6.20;5.17;;;9.90;99.90;9.30;99066;;;;574277;246;24127;-76
2023/04/25 05:28:05;;;;;;;6.80;5.13;;;10.00;99.90;9.40;99066;;;;574138;246;24096;-76
2023/04/25 05:30:32;;;;;;;6.57;4.83;;;10.10;99.90;9.40;99075;;;;574251;246;24054;-75
2023/04/25 05:33:00;;;;;;;8.13;4.90;;;10.10;99.90;9.50;99072;;;;573622;246;24053;-75
2023/04/25 05:35:28;;;;;;;6.57;4.73;;;10.20;99.90;9.50;99072;;;;573703;246;24083;-78
2023/04/25 05:37:56;;;;;;;5.83;4.17;;;10.20;99.90;9.50;99081;;;;573814;246;24173;-80
2023/04/25 05:40:24;;;;;;;10.37;5.10;;;10.20;99.90;9.50;99089;;;;573408;246;24110;-78
2023/04/25 05:42:52;;;;;;;6.30;4.93;;;10.30;99.90;9.60;99084;;;;573335;246;24149;-76
2023/04/25 05:45:21;;;;;;;5.47;4.10;;;10.30;99.90;9.50;99094;;;;573309;246;24105;-75
2023/04/25 05:47:49;;;;;;;9.87;4.90;;;10.30;99.90;9.50;99095;;;;573790;246;24120;-76
2023/04/25 05:50:20;;;;;;;5.03;3.57;;;10.20;99.90;9.40;99094;;;;573934;246;24058;-75
2023/04/25 05:52:45;;;;;;;4.50;3.67;;;10.20;99.90;9.40;99111;;;;568967;246;24073;-74
2023/04/25 05:55:13;;;;;;;6.83;4.47;;;10.20;99.90;9.40;99100;;;;573365;246;24073;-75
2023/04/25 05:57:42;;;;;;;5.50;4.13;;;10.10;99.90;9.30;99095;;;;569174;246;24127;-76
2023/04/25 06:00:10;;;;;;;6.83;4.70;;;10.10;99.90;9.30;99100;;;;573226;246;24183;-74
2023/04/25 06:02:38;;;;;;;4.87;4.23;;;10.10;99.90;9.30;99104;;;;573518;244;24072;-80
2023/04/25 06:05:08;;;;;;;3.23;2.63;;;10.10;99.90;9.30;99109;;;;574625;246;28349;-75
2023/04/25 06:07:34;;;;;;;5.10;3.90;;;10.10;99.90;9.20;99108;;;;583067;246;24171;-76
2023/04/25 06:10:02;;;;;;;4.83;4.20;;;10.00;99.90;9.10;99101;;;;574331;240;24069;-74
2023/04/25 06:12:29;;;;;;;5.77;3.83;;;9.90;99.90;9.10;99105;;;;574307;246;24101;-76
2023/04/25 06:14:57;;;;;;;5.87;3.83;;;9.90;99.90;9.10;99105;;;;574122;246;24079;-74
2023/04/25 06:17:25;;;;;;;4.40;3.43;;;9.90;99.90;9.00;99110;;;;574115;246;24077;-73
2023/04/25 06:19:53;;;;;;;6.70;3.70;;;9.80;99.90;8.90;99120;;;;573781;246;24112;-78
2023/04/25 06:22:21;;;;;;;3.83;3.53;;;9.80;99.90;8.80;99107;;;;573515;246;24068;-74
2023/04/25 06:24:49;;;;;;;2.53;2.33;;;9.60;99.90;8.80;99109;;;;573404;246;24092;-76
2023/04/25 06:27:17;;;;;;;2.90;2.53;;;9.60;99.90;8.70;99115;;;;572997;246;24110;-74
2023/04/25 06:29:45;;;;;;;3.63;3.33;;;9.50;99.90;8.70;99111;;;;573630;246;24078;-75
2023/04/25 06:32:12;;;;;;;4.03;3.03;;;9.40;99.90;8.60;99115;;;;573646;246;24116;-78
2023/04/25 06:34:40;;;;;;;8.37;3.50;;;9.40;99.90;8.70;99117;;;;573843;246;24165;-75
2023/04/25 06:37:08;;;;;;;5.27;3.43;;;9.40;99.90;8.60;99127;;;;573739;246;24142;-76
2023/04/25 06:39:36;;;;;;;5.60;4.10;;;9.40;99.90;8.60;99126;;;;568860;246;35108;-74
2023/04/25 06:42:04;;;;;;;4.77;3.63;;;9.40;99.90;8.70;99128;;;;573410;246;24117;-74
2023/04/25 06:44:32;;;;;;;3.23;2.90;;;9.40;99.90;8.70;99127;;;;573382;246;24085;-75
2023/04/25 06:47:00;;;;;;;3.30;2.90;;;9.50;99.90;8.70;99128;;;;573673;246;24123;-75
2023/04/25 06:49:28;;;;;;;3.70;3.37;;;9.50;99.90;8.80;99136;;;;573793;246;24109;-77
2023/04/25 06:51:56;;;;;;;5.13;3.07;;;9.50;99.90;8.80;99133;;;;573622;246;24138;-80
2023/04/25 06:54:24;;;;;;;3.87;3.10;;;9.60;99.90;8.90;99132;;;;573642;246;24051;-77
2023/04/25 06:56:51;;;;;;;5.00;3.20;;;9.60;99.90;9.00;99124;;;;573471;246;24058;-75
2023/04/25 06:59:20;;;;;;;3.07;2.83;;;9.80;99.90;9.10;99120;;;;573232;246;24077;-77
2023/04/25 07:01:48;;;;;;;3.87;3.20;;;9.80;99.90;9.20;99125;;;;573154;246;24098;-74
2023/04/25 07:04:17;;;;;;;3.53;3.20;;;10.10;99.90;9.30;99129;;;;573231;246;24122;-77
2023/04/25 07:06:48;;;;;;;3.37;2.90;;;10.00;99.90;9.40;99133;;;;573131;246;24062;-75
2023/04/25 07:09:13;;;;;;;3.50;2.93;;;10.10;99.90;9.40;99128;;;;573196;246;24072;-75
2023/04/25 07:11:40;;;;;;;3.47;2.50;;;10.20;99.90;9.50;99131;;;;573243;246;24114;-75
2023/04/25 07:14:08;;;;;;;2.43;2.23;;;10.20;99.90;9.50;99135;;;;573877;244;24122;-78
2023/04/25 07:16:36;;;;;;;2.57;2.37;;;10.30;99.90;9.50;99136;;;;575109;246;24081;-75
2023/04/25 07:19:04;;;;;;;3.63;2.90;;;10.30;99.90;9.50;99140;;;;574812;246;24289;-75
2023/04/25 07:21:32;;;;;;;3.00;2.63;;;10.30;99.90;9.50;99139;;;;574338;246;24091;-74
2023/04/25 07:24:01;;;;;;;5.03;2.87;;;10.30;99.90;9.50;99141;;;;574216;246;24198;-74
2023/04/25 07:26:29;;;;;;;6.00;2.93;;;10.30;99.90;9.40;99142;;;;573995;246;24080;-76
2023/04/25 07:28:59;;;;;;;2.73;2.53;;;10.20;99.90;9.40;99157;;;;574284;246;24125;-74
2023/04/25 07:31:25;;;;;;;2.90;2.50;;;10.20;99.90;9.40;99152;;;;574057;246;24056;-77
2023/04/25 07:33:54;;;;;;;2.47;2.17;;;10.10;99.90;9.40;99154;;;;573857;246;24088;-75
2023/04/25 07:36:22;;;;;;;2.93;2.10;;;10.10;99.90;9.30;99156;;;;573617;246;24122;-75
2023/04/25 07:38:49;;;;;;;2.67;2.40;;;10.10;99.90;9.30;99154;;;;574218;246;24066;-76
2023/04/25 07:41:17;;;;;;;8.63;2.67;;;10.10;99.90;9.40;99164;;;;574352;246;24077;-76
2023/04/25 07:43:46;;;;;;;3.43;2.00;;;10.10;99.90;9.40;99169;;;;573600;246;24068;-77
2023/04/25 07:46:18;;;;;;;1.90;1.77;;;10.10;99.90;9.30;99170;;;;574230;246;24095;-73
2023/04/25 07:48:42;;;;;;;2.67;2.10;;;10.10;99.90;9.20;99162;;;;574425;246;24093;-74
2023/04/25 07:51:10;;;;;;;1.80;1.70;;;10.00;99.90;9.20;99164;;;;573923;246;24087;-74
2023/04/25 07:53:38;;;;;;;1.53;1.50;;;10.00;99.90;9.30;99167;;;;573688;246;24155;-75
2023/04/25 07:56:09;;;;;;;4.20;1.77;;;10.00;99.90;9.20;99178;;;;573658;246;24076;-79
2023/04/25 07:58:34;;;;;;;1.80;1.70;;;10.00;99.90;9.20;99162;;;;573341;246;24073;-79
2023/04/25 08:01:02;;;;;;;4.43;1.70;;;10.00;99.90;9.30;99178;;;;573592;246;24063;-76
2023/04/25 08:03:30;;;;;;;2.77;1.57;;;10.00;99.90;9.40;99184;;;;574238;246;24057;-75
2023/04/25 08:06:03;;;;;;;1.50;1.40;;;10.10;99.90;9.50;99174;;;;573550;246;24069;-77
2023/04/25 08:08:27;;;;;;;1.70;1.60;;;10.20;99.90;9.60;99179;;;;573219;246;24137;-76
2023/04/25 08:10:55;;;;;;;1.97;1.17;;;10.30;99.90;9.70;99178;;;;573481;246;24073;-75
2023/04/25 08:13:26;;;;;;;1.70;1.50;;;10.40;99.90;9.90;99180;;;;573178;246;24067;-76
2023/04/25 08:15:57;;;;;;;1.17;1.17;;;10.60;99.90;10.10;99185;;;;573585;246;24121;-76
2023/04/25 08:18:22;;;;;;;1.23;1.13;;;10.80;99.90;10.40;99184;;;;573650;246;24104;-75
2023/04/25 08:20:50;;;;;;;1.10;1.10;;;11.10;99.90;11.00;99194;;;;573457;246;24098;-76
2023/04/25 08:23:17;;;;;;;1.97;1.40;;;11.60;99.90;11.60;99196;;;;573676;246;24105;-76
2023/04/25 08:25:46;;;;;;;1.40;1.30;;;12.20;99.90;12.10;99202;;;;574303;244;24074;-77
2023/04/25 08:28:13;;;;;;;1.80;1.70;;;12.70;99.90;12.40;99206;;;;575280;246;24041;-76
2023/04/25 08:30:45;;;;;;;1.50;1.30;;;13.00;99.90;12.50;99197;;;;574519;246;24083;-75
2023/04/25 08:33:10;;;;;;;3.43;1.47;;;13.20;99.90;12.40;99201;;;;573626;246;24088;-75
2023/04/25 08:35:37;;;;;;;1.00;1.00;;;13.20;99.90;12.40;99205;;;;573855;246;24055;-74
2023/04/25 08:38:05;;;;;;;2.27;1.80;;;13.20;99.90;12.40;99210;;;;573659;246;24155;-75
2023/04/25 08:40:33;;;;;;;4.93;1.77;;;13.20;99.90;12.50;99205;;;;573566;246;24118;-75
2023/04/25 08:43:03;;;;;;;1.50;1.40;;;13.20;99.90;12.50;99212;;;;573549;246;24080;-76
2023/04/25 08:45:29;;;;;;;1.60;1.50;;;13.20;99.90;12.40;99210;;;;574404;246;24067;-77
2023/04/25 08:48:00;;;;;;;5.50;1.70;;;13.10;99.90;12.20;99212;;;;574274;244;24124;-74
2023/04/25 08:50:26;;;;;;;1.50;1.40;;;13.00;99.90;12.10;99214;;;;573036;246;24093;-75
2023/04/25 08:52:53;;;;;;;2.43;1.47;;;12.80;99.90;12.10;99214;;;;573156;246;24111;-76
2023/04/25 08:55:21;;;;;;;1.73;1.63;;;12.80;99.90;12.10;99214;;;;573703;246;24082;-77
2023/04/25 08:57:52;;;;;;;1.60;1.50;;;12.80;99.90;12.10;99224;;;;573496;246;24188;-79
2023/04/25 09:00:17;;;;;;;3.00;1.63;;;12.80;99.90;12.10;99226;;;;573252;246;24179;-76
2023/04/25 09:02:45;;;;;;;2.93;2.13;;;12.80;99.90;12.20;99221;;;;573105;246;24058;-76
2023/04/25 09:05:13;;;;;;;2.73;1.57;;;12.90;99.90;12.40;99230;;;;573138;246;24159;-77
2023/04/25 09:07:41;;;;;;;3.23;1.93;;;13.10;99.90;12.60;99230;;;;573680;246;24115;-78
2023/04/25 09:10:09;;;;;;;2.90;1.67;;;13.30;99.90;12.60;99239;;;;573976;246;24054;-78
2023/04/25 09:12:37;;;;;;;2.33;1.43;;;13.30;99.90;12.60;99237;;;;568540;246;24076;-77
2023/04/25 09:15:07;;;;;;;2.80;1.37;;;13.30;99.90;12.50;99232;;;;573677;244;24073;-78
2023/04/25 09:17:40;;;;;;;1.70;1.60;;;13.20;99.90;12.80;99239;;;;573694;246;24115;-79
2023/04/25 09:20:09;;;;;;;1.63;1.50;;;13.40;99.90;13.50;99242;;;;574454;246;24139;-79
2023/04/25 09:22:37;;;;;;;1.83;1.50;;;14.10;99.90;14.10;99258;;;;573818;246;24119;-78
2023/04/25 09:25:06;;;;;;;1.37;1.37;;;14.70;99.90;14.30;99251;;;;573534;246;24071;-79
2023/04/25 09:27:33;;;;;;;1.70;1.50;;;15.00;99.90;14.20;99257;;;;573257;246;24117;-76
2023/04/25 09:30:01;;;;;;;6.77;1.70;;;14.90;99.90;14.00;99257;;;;573245;246;24094;-75
2023/04/25 09:32:28;;;;;;;4.70;1.50;;;14.80;99.90;13.70;99259;;;;573211;246;24085;-74
2023/04/25 09:34:56;;;;;;;1.67;1.33;;;14.60;99.90;13.50;99265;;;;573048;246;24119;-77
2023/04/25 09:37:24;;;;;;;2.37;1.37;;;14.30;99.90;13.30;99262;;;;573317;244;24084;-76
2023/04/25 09:39:55;;;;;;;2.83;1.70;;;14.10;99.90;13.00;99265;;;;574488;246;24081;-76
2023/04/25 09:42:27;;;;;;;1.40;1.40;;;13.50;99.90;12.60;99269;;;;574689;246;24089;-72
2023/04/25 09:44:54;;;;;;;5.13;1.53;;;13.40;99.90;12.40;99262;;;;573731;240;24076;-76
2023/04/25 09:47:23;;;;;;;1.23;1.20;;;13.20;99.90;12.30;99264;;;;574457;246;24124;-74
2023/04/25 09:49:50;;;;;;;2.33;2.23;;;13.10;99.90;12.30;99267;;;;574417;246;24089;-76
2023/04/25 09:52:21;;;;;;;5.93;2.60;;;13.00;99.90;12.20;99267;;;;570986;247;24132;-77
2023/04/25 09:54:49;;;;;;;2.20;1.40;;;12.90;99.90;12.20;99269;;;;572454;246;24080;-78
2023/04/25 09:57:16;;;;;;;1.53;1.43;;;12.90;99.90;12.10;99266;;;;573531;246;24113;-75
2023/04/25 09:59:53;;;;;;;1.60;1.50;;;12.80;99.90;12.10;99270;;;;574272;246;24085;-76
2023/04/25 10:02:23;;;;;;;1.60;1.50;;;12.80;99.90;12.20;99275;;;;573813;246;24116;-76
2023/04/25 10:04:54;;;;;;;1.50;1.50;;;12.80;99.90;12.30;99276;;;;573884;246;24078;-80
2023/04/25 10:07:21;;;;;;;2.30;1.93;;;13.00;99.90;12.40;99284;;;;572517;246;24103;-77
2023/04/25 10:09:51;;;;;;;1.40;1.30;;;13.00;99.90;12.40;99277;;;;569585;246;24136;-75
2023/04/25 10:12:22;;;;;;;1.70;1.60;;;13.00;99.90;12.40;99274;;;;574037;246;24062;-77
2023/04/25 10:14:47;;;;;;;2.93;1.40;;;13.10;99.90;12.50;99280;;;;573799;246;24069;-76
2023/04/25 10:17:16;;;;;;;2.40;1.30;;;13.40;99.90;12.70;99283;;;;573974;246;24054;-75
2023/04/25 10:19:44;;;;;;;3.83;1.83;;;13.30;99.90;12.90;99286;;;;573512;246;24113;-76
2023/04/25 10:22:30;;;;;;;1.37;1.37;;;13.50;99.90;13.10;99285;;;;573931;246;24075;-75
2023/04/25 10:25:03;;;;;;;5.40;2.00;;;13.70;99.90;13.30;99279;;;;569235;246;24082;-75
2023/04/25 10:27:33;;;;;;;3.00;1.70;;;13.90;99.90;13.40;99289;;;;569544;246;24073;-75
2023/04/25 10:30:14;;;;;;;1.80;1.70;;;14.00;99.90;13.30;99286;;;;573691;246;24063;-75
2023/04/25 10:32:40;;;;;;;1.83;1.33;;;14.00;99.90;13.10;99288;;;;582835;246;24061;-74
2023/04/25 10:35:18;;;;;;;2.87;1.57;;;13.60;99.90;12.90;99299;;;;574070;244;24125;-74
2023/04/25 10:38:07;;;;;;;1.50;1.40;;;13.60;99.90;12.60;99292;;;;573483;244;24079;-75
2023/04/25 10:40:34;;;;;;;5.77;3.50;;;13.40;99.90;12.40;99306;;;;573411;246;24072;-74
2023/04/25 10:43:39;;;;;;;5.33;3.40;;;13.20;99.90;12.20;99298;;;;573402;246;24119;-74
2023/04/25 10:46:25;;;;;;;4.17;2.63;;;13.00;99.90;12.10;99295;;;;573732;246;24095;-77
2023/04/25 10:48:56;;;;;;;4.07;2.63;;;12.80;99.90;11.90;99300;;;;573452;244;24075;-75
2023/04/25 10:51:33;;;;;;;3.87;2.47;;;12.50;99.90;11.80;99299;;;;575316;246;24110;-74
2023/04/25 10:54:01;;;;;;;2.93;2.50;;;12.50;99.90;11.70;99306;;;;574706;246;24069;-76
2023/04/25 10:56:29;;;;;;;2.90;1.70;;;12.40;99.90;11.70;99311;;;;574337;246;24062;-77
2023/04/25 10:59:10;;;;;;;1.43;1.33;;;12.40;99.90;11.70;99315;;;;574028;246;24070;-78
2023/04/25 11:01:40;;;;;;;6.13;2.23;;;12.30;99.90;11.80;99316;;;;573855;246;24078;-77
2023/04/25 11:04:20;;;;;;;5.27;2.10;;;12.40;99.90;11.80;99313;;;;582941;245;24080;-75
2023/04/25 11:07:25;;;;;;;2.17;1.90;;;12.50;99.90;11.90;99312;;;;573751;246;24087;-76
2023/04/25 11:09:53;;;;;;;5.33;2.40;;;12.50;99.90;12.00;99319;;;;573997;246;24054;-75
2023/04/25 11:12:20;;;;;;;3.13;2.27;;;12.60;99.90;12.00;99312;;;;569857;246;24092;-77
2023/04/25 11:14:48;;;;;;;2.50;2.20;;;12.60;99.90;12.10;99311;;;;573936;246;24127;-78
2023/04/25 11:17:16;;;;;;;2.17;2.07;;;12.70;99.90;12.20;99313;;;;574223;246;24148;-75
2023/04/25 11:19:44;;;;;;;2.40;1.80;;;12.80;99.90;12.20;99310;;;;573155;246;24074;-74
2023/04/25 11:22:15;;;;;;;2.80;2.30;;;12.80;99.90;12.30;99317;;;;574102;246;24084;-76
2023/04/25 11:24:40;;;;;;;2.50;2.10;;;12.90;99.90;12.30;99320;;;;569094;246;24087;-77
2023/04/25 11:27:08;;;;;;;2.50;1.70;;;12.90;99.90;12.30;99320;;;;573698;246;24050;-76
2023/04/25 11:29:36;;;;;;;1.57;1.47;;;13.00;99.90;12.40;99322;;;;573821;246;24111;-77